createdAt,value
2022-10-17T00:00:02.865Z,13.5
2022-10-17T00:05:01.621Z,12.8
2022-10-17T00:10:01.714Z,10.9
2022-10-17T00:15:03.437Z,11.1
2022-10-17T00:25:01.736Z,11.5
2022-10-17T00:30:02.855Z,11.8
2022-10-17T00:35:01.721Z,14.0
2022-10-17T00:40:01.633Z,14.7
2022-10-17T00:45:17.336Z,14.1
2022-10-17T00:55:01.764Z,13.5
2022-10-17T01:00:07.208Z,13.9
2022-10-17T01:05:01.322Z,13.4
2022-10-17T01:10:01.625Z,14.4
2022-10-17T01:15:01.599Z,14.7
2022-10-17T01:20:01.561Z,15.4
2022-10-17T01:25:01.617Z,15.2
2022-10-17T01:30:18.135Z,14.8
2022-10-17T01:35:01.498Z,14.9
2022-10-17T01:40:01.834Z,15.8
2022-10-17T01:45:11.124Z,15.6
2022-10-17T01:50:01.574Z,16.6
2022-10-17T01:55:01.530Z,17.7
2022-10-17T02:00:06.119Z,17.8
2022-10-17T02:10:01.709Z,20.5
2022-10-17T02:15:15.480Z,21.6
2022-10-17T02:20:01.545Z,23.4
2022-10-17T02:25:01.537Z,26.3
2022-10-17T02:30:05.831Z,26.8
2022-10-17T02:35:01.404Z,27.8
2022-10-17T02:40:01.405Z,29.0
2022-10-17T02:45:03.050Z,30.2
2022-10-17T02:50:01.668Z,30.5
2022-10-17T02:55:01.514Z,32.3
2022-10-17T03:00:04.690Z,33.5
2022-10-17T03:05:01.653Z,34.7
2022-10-17T03:15:03.440Z,36.3
2022-10-17T03:26:01.694Z,37.1
2022-10-17T03:31:01.731Z,37.5
2022-10-17T03:36:01.814Z,38.2
2022-10-17T03:46:01.639Z,39.2
2022-10-17T03:51:01.778Z,39.8
2022-10-17T03:56:01.648Z,40.4
2022-10-17T04:01:01.855Z,40.3
2022-10-17T04:06:01.786Z,40.2
2022-10-17T04:11:02.086Z,40.0
2022-10-17T04:21:02.061Z,39.7
2022-10-17T04:26:01.629Z,40.7
2022-10-17T04:31:01.716Z,41.0
2022-10-17T04:36:01.803Z,42.0
2022-10-17T04:41:01.645Z,42.4
2022-10-17T04:46:01.643Z,42.9
2022-10-17T04:51:01.636Z,43.0
2022-10-17T04:56:01.622Z,43.6
2022-10-17T05:01:04.596Z,42.7
2022-10-17T05:06:01.633Z,43.2
2022-10-17T05:11:01.809Z,42.9
2022-10-17T05:16:01.651Z,42.8
2022-10-17T05:21:01.637Z,43.4
2022-10-17T05:26:01.693Z,44.6
2022-10-17T05:31:01.710Z,44.2
2022-10-17T05:36:01.811Z,45.0
2022-10-17T05:41:01.518Z,46.0
2022-10-17T05:46:01.615Z,45.6
2022-10-17T05:51:01.651Z,45.6
2022-10-17T05:56:01.680Z,47.0
2022-10-17T06:01:01.740Z,47.6
2022-10-17T06:06:01.700Z,48.1
2022-10-17T06:11:07.704Z,48.8
2022-10-17T06:16:01.653Z,49.1
2022-10-17T06:21:01.673Z,48.9
2022-10-17T06:26:01.693Z,49.1
2022-10-17T06:31:01.750Z,49.0
2022-10-17T06:36:01.653Z,49.4
2022-10-17T06:41:01.624Z,49.8
2022-10-17T06:46:01.613Z,50.3
2022-10-17T06:51:01.711Z,50.9
2022-10-17T06:56:01.623Z,50.9
2022-10-17T07:01:02.068Z,50.5
2022-10-17T07:06:01.632Z,50.2
2022-10-17T07:16:01.723Z,49.5
2022-10-17T07:21:01.743Z,49.8
2022-10-17T07:26:05.580Z,50.3
2022-10-17T07:31:06.664Z,51.6
2022-10-17T07:36:01.674Z,50.7
2022-10-17T07:41:02.767Z,49.8
2022-10-17T07:46:03.175Z,49.2
2022-10-17T07:51:02.761Z,47.9
2022-10-17T07:56:06.213Z,45.8
2022-10-17T08:01:03.957Z,45.4
2022-10-17T08:06:01.616Z,45.1
2022-10-17T08:11:01.636Z,44.5
2022-10-17T08:16:01.679Z,44.4
2022-10-17T08:21:01.637Z,43.5
2022-10-17T08:26:01.618Z,43.2
2022-10-17T08:31:03.613Z,42.4
2022-10-17T08:36:01.616Z,42.1
2022-10-17T08:41:03.971Z,41.3
2022-10-17T08:46:05.127Z,40.5
2022-10-17T08:51:05.960Z,40.5
2022-10-17T08:56:01.513Z,40.7
2022-10-17T09:01:01.429Z,39.8
2022-10-17T09:06:01.336Z,39.8
2022-10-17T09:11:01.375Z,40.4
2022-10-17T09:16:01.412Z,40.1
2022-10-17T09:21:01.425Z,40.0
2022-10-17T09:26:01.320Z,40.1
2022-10-17T09:31:01.494Z,39.9
2022-10-17T09:36:04.579Z,39.4
2022-10-17T09:41:01.777Z,39.0
2022-10-17T09:46:06.808Z,38.4
2022-10-17T09:56:01.112Z,38.1
2022-10-17T10:01:01.711Z,38.3
2022-10-17T10:06:01.767Z,38.8
2022-10-17T10:11:01.448Z,39.4
2022-10-17T10:16:01.146Z,40.0
2022-10-17T10:21:01.590Z,40.0
2022-10-17T10:26:01.639Z,39.6
2022-10-17T10:31:01.100Z,39.3
2022-10-17T10:36:01.627Z,38.7
2022-10-17T10:41:01.829Z,38.3
2022-10-17T10:46:01.209Z,37.8
2022-10-17T10:51:06.488Z,36.9
2022-10-17T10:56:01.347Z,36.5
2022-10-17T11:01:01.203Z,35.8
2022-10-17T11:06:01.741Z,35.5
2022-10-17T11:12:01.671Z,35.3
2022-10-17T11:17:07.917Z,36.5
2022-10-17T11:22:01.830Z,36.1
2022-10-17T11:32:01.812Z,36.2
2022-10-17T11:37:01.805Z,35.7
2022-10-17T11:42:04.455Z,34.1
2022-10-17T11:47:01.690Z,33.6
2022-10-17T11:52:03.541Z,32.4
2022-10-17T11:57:01.645Z,31.8
2022-10-17T12:02:01.576Z,32.3
2022-10-17T12:07:01.742Z,33.2
2022-10-17T12:13:01.659Z,33.3
2022-10-17T12:18:01.759Z,34.1
2022-10-17T12:23:01.987Z,34.6
2022-10-17T12:28:01.729Z,33.7
2022-10-17T12:33:16.621Z,33.0
2022-10-17T12:38:01.660Z,32.4
2022-10-17T12:43:01.803Z,31.2
2022-10-17T12:48:01.782Z,29.9
2022-10-17T12:53:01.749Z,29.8
2022-10-17T12:58:01.632Z,29.4
2022-10-17T13:03:01.748Z,29.8
2022-10-17T13:08:01.806Z,29.4
2022-10-17T13:13:01.720Z,30.0
2022-10-17T13:18:01.628Z,30.6
2022-10-17T13:23:02.344Z,30.7
2022-10-17T13:28:01.860Z,30.8
2022-10-17T13:33:01.832Z,31.4
2022-10-17T13:38:01.709Z,31.4
2022-10-17T13:43:01.902Z,31.2
2022-10-17T13:48:01.647Z,30.9
2022-10-17T13:53:01.546Z,30.8
2022-10-17T13:58:01.705Z,30.7
2022-10-17T14:03:03.540Z,30.3
2022-10-17T14:08:24.107Z,30.2
2022-10-17T14:13:02.969Z,31.2
2022-10-17T14:18:16.706Z,31.0
2022-10-17T14:33:05.067Z,31.9
2022-10-17T14:38:01.338Z,31.4
2022-10-17T14:43:01.979Z,31.8
2022-10-17T14:48:11.865Z,31.8
2022-10-17T14:53:01.693Z,32.2
2022-10-17T14:58:01.649Z,31.8
2022-10-17T15:03:01.644Z,32.1
2022-10-17T15:08:01.685Z,32.3
2022-10-17T15:18:02.240Z,32.3
2022-10-17T15:23:02.411Z,32.8
2022-10-17T15:28:01.839Z,32.8
2022-10-17T15:33:01.748Z,33.5
2022-10-17T15:38:01.698Z,34.3
2022-10-17T15:43:01.649Z,35.0
2022-10-17T15:53:04.428Z,36.4
2022-10-17T16:03:01.641Z,36.0
2022-10-17T16:08:01.643Z,36.9
2022-10-17T16:13:01.918Z,37.8
2022-10-17T16:18:10.427Z,37.5
2022-10-17T16:23:01.899Z,37.4
2022-10-17T16:28:01.641Z,38.5
2022-10-17T16:33:02.163Z,37.8
2022-10-17T16:43:01.643Z,37.2
2022-10-17T16:48:02.151Z,37.6
2022-10-17T16:53:02.217Z,38.5
2022-10-17T16:58:02.290Z,39.6
2022-10-17T17:03:03.932Z,40.2
2022-10-17T17:08:01.738Z,40.8
2022-10-17T17:13:02.416Z,40.8
2022-10-17T17:18:06.370Z,40.0
2022-10-17T17:23:02.082Z,39.6
2022-10-17T17:28:01.338Z,39.2
2022-10-17T17:33:01.661Z,40.0
2022-10-17T17:38:01.630Z,40.3
2022-10-17T17:48:01.612Z,40.7
2022-10-17T17:53:01.704Z,41.7
2022-10-17T17:58:02.604Z,41.6
2022-10-17T18:03:01.613Z,42.4
2022-10-17T18:08:01.611Z,43.2
2022-10-17T18:13:01.709Z,44.0
2022-10-17T18:18:01.616Z,44.4
2022-10-17T18:23:04.920Z,44.8
2022-10-17T18:28:01.627Z,44.8
2022-10-17T18:33:01.647Z,44.9
2022-10-17T18:38:01.621Z,44.8
2022-10-17T18:43:01.622Z,44.5
2022-10-17T18:48:01.661Z,44.3
2022-10-17T18:58:02.139Z,43.5
2022-10-17T19:03:01.612Z,43.5
2022-10-17T19:08:01.608Z,43.8
2022-10-17T19:13:01.625Z,44.2
2022-10-17T19:18:01.724Z,45.1
2022-10-17T19:23:01.612Z,46.3
2022-10-17T19:28:01.614Z,46.5
2022-10-17T19:33:01.686Z,46.6
2022-10-17T19:38:01.753Z,47.2
2022-10-17T19:43:01.617Z,46.6
2022-10-17T19:48:01.614Z,46.0
2022-10-17T19:53:01.612Z,45.8
2022-10-17T19:58:01.718Z,45.1
2022-10-17T20:03:01.621Z,44.4
2022-10-17T20:08:01.667Z,44.0
2022-10-17T20:13:01.710Z,43.6
2022-10-17T20:18:01.647Z,44.0
2022-10-17T20:23:01.604Z,45.0
2022-10-17T20:28:01.731Z,45.7
2022-10-17T20:33:02.039Z,45.8
2022-10-17T20:38:01.741Z,46.7
2022-10-17T20:43:01.652Z,47.2
2022-10-17T20:48:01.662Z,47.2
2022-10-17T20:58:01.710Z,46.2
2022-10-17T21:03:01.650Z,45.4
2022-10-17T21:08:01.628Z,44.7
2022-10-17T21:13:01.669Z,44.1
2022-10-17T21:18:01.711Z,43.3
2022-10-17T21:23:01.744Z,43.6
2022-10-17T21:28:01.722Z,44.7
2022-10-17T21:33:01.614Z,45.2
2022-10-17T21:38:01.673Z,45.4
2022-10-17T21:43:01.616Z,46.3
2022-10-17T21:48:13.635Z,46.6
2022-10-17T21:53:01.632Z,45.8
2022-10-17T21:58:01.705Z,45.2
2022-10-17T22:03:02.136Z,44.4
2022-10-17T22:13:01.625Z,44.5
2022-10-17T22:18:01.778Z,45.1
2022-10-17T22:23:01.657Z,44.9
2022-10-17T22:28:01.605Z,46.0
2022-10-17T22:33:01.610Z,46.0
2022-10-17T22:38:01.549Z,45.9
2022-10-17T22:43:01.515Z,45.6
2022-10-17T22:48:01.871Z,45.3
2022-10-17T22:53:01.250Z,43.8
2022-10-17T22:58:01.385Z,43.1
2022-10-17T23:03:01.629Z,41.3
2022-10-17T23:08:01.493Z,39.9
2022-10-17T23:13:01.639Z,39.1
2022-10-17T23:18:01.328Z,39.4
2022-10-17T23:23:01.663Z,39.6
2022-10-17T23:28:01.658Z,41.5
2022-10-17T23:33:01.664Z,43.0
2022-10-17T23:38:01.765Z,44.5
2022-10-17T23:43:01.661Z,44.8
2022-10-17T23:49:02.546Z,44.4
2022-10-17T23:54:02.126Z,44.3
2022-10-17T23:59:01.659Z,43.6
